x

Long Island - 30 Nm South Of Islip, Ny (44025) Wave Buoy

12:50pm - Sun 28th Aug 2016 All times are EDT. -4 hours from GMT.

  • Sig Wave height 2.6ft
  • Swell Direction
  • Peak Period 8s
  • Average Period 5s
  • Wind
    7mph, 9mph gusts
  • Sea Temp 75°f
  • Air Temp 75°f
  • Sea Pressure 1024.3mb
  • Long Island - 30 Nm South Of Islip, Ny
  • Long Island - 30 Nm South Of Islip, Ny

More Historic Weather Station data

Upgrade to MSW Pro to gain access to the past 30 days of data for over 8000 Wavebouys and Weather Stations around the globe.

Join Pro

Comparision Forecast

View Surf forecast
   
Sun 08/28 12:50pm 2.5ft 8s 5s 7 9 mph 1024.3mb 75f 75f
11:50am 2.5ft 9s 5s 7 9 mph 1024.5mb 75f 75f
10:50am 2.5ft 10s 5s 7
mph
1024.7mb 74f 75f
9:50am 2.5ft 8s 5s 7
mph
1024.7mb 74f 75f
8:50am 2.5ft 9s 5s 9
mph
1024.4mb 74f 75f
7:50am 2.5ft 9s 5s 9
mph
1024.3mb 74f 76f
6:50am 2.5ft 9s 5s 11
mph
1023.8mb 74f 76f
5:50am 2.5ft 9s 4s 11 13 mph 1023mb 74f 76f
4:50am 2.5ft 9s 5s 13 16 mph 1022.8mb 74f 76f
3:50am 2.5ft 9s 5s 13 16 mph 1022.3mb 74f 76f
2:50am 2.5ft 9s 5s 11 13 mph 1022.6mb 74f 76f
1:50am 2.5ft 9s 5s 9 11 mph 1023.1mb 74f 75f
12:50am 2.5ft 9s 5s 9 11 mph 1023.3mb 74f 75f
Sat 08/27 11:50pm 2.5ft 8s 5s 4 7 mph 1023.4mb 74f 75f
10:50pm 2.5ft 9s 5s 4 7 mph 1023.4mb 75f 75f
9:50pm 2.5ft 10s 5s 4
mph
1023.2mb 75f 75f
8:50pm 2.5ft 8s 5s 7
mph
1022.7mb 75f 75f
7:50pm 2.5ft 10s 5s 9 11 mph 1021.9mb 75f 76f
6:50pm 2ft 9s 5s 9 11 mph 1021.3mb 75f 76f
5:50pm 2.5ft 10s 5s 7 9 mph 1021.5mb 76f 76f
4:50pm 2.5ft 10s 5s 7
mph
1021.4mb 76f 76f
3:50pm 2.5ft 10s 5s 7 9 mph 1021.3mb 76f 76f
2:50pm 2.5ft 10s 5s 9
mph
1021.5mb 75f 75f
1:50pm 2.5ft 10s 5s 9 11 mph 1021.7mb 75f 75f
12:50pm 2.5ft 7s 4s 11
mph
1021.7mb 75f 75f
11:50am 2.5ft 8s 4s 13 16 mph 1021.6mb 74f 75f
10:50am 2.5ft 7s 4s 13 16 mph 1021.5mb 74f 74f
9:50am 2ft 8s 4s 13 16 mph 1021.3mb 74f 74f
8:50am 2.5ft 8s 4s 13 16 mph 1020.8mb 74f 74f
7:50am 2.5ft 8s 4s 16 18 mph 1020.4mb 74f 74f
6:50am 2ft 8s 4s 16 18 mph 1019.8mb 74f 74f
5:50am 2ft 8s 5s 13 16 mph 1019.1mb 74f 75f
4:50am 2ft 8s 5s 11 13 mph 1018.6mb 74f 75f
3:50am 2ft 8s 5s 9 11 mph 1018.3mb 74f 75f
2:50am 2.5ft 8s 5s 11 13 mph 1018.1mb 74f 76f
1:50am 2.5ft 8s 5s 9 11 mph 1017.9mb 74f 77f
12:50am 2.5ft 7s 5s 7 9 mph 1017.8mb 74f 76f
Fri 08/26 11:50pm 2.5ft 6s 5s 4 7 mph 1017.3mb 74f 76f
10:50pm 2.5ft 6s 5s 7
mph
1016.9mb 74f 76f
9:50pm 2.5ft 6s 5s 7
mph
1016.6mb 74f 76f
8:50pm 2.5ft 6s 5s 4 7 mph 1016.1mb 74f 76f
7:50pm 2.5ft 6s 5s 7 9 mph 1015.6mb 74f 76f
6:50pm 3ft 6s 5s 7 11 mph 1015.1mb 74f 77f
5:50pm 2.5ft 5s 5s 11 13 mph 1014.7mb 74f 77f
4:50pm 3ft 6s 5s 11 13 mph 1014.7mb 75f 77f
3:50pm 3ft 6s 5s 13 16 mph 1014.6mb 75f 77f
2:50pm 3ft 6s 4s 9 11 mph 1014.6mb 75f 76f
1:50pm 3.5ft 6s 4s 11 13 mph 1014.9mb 75f 76f
12:50pm 3.5ft 5s 5s 9 11 mph 1015mb 75f 76f
11:50am 3.5ft 6s 4s 11 13 mph 1015.3mb 74f 75f
10:50am 4ft 5s 5s 16 18 mph 1015.3mb 74f 75f
9:50am 4ft 5s 4s 16 18 mph 1015.6mb 74f 76f
8:50am 4ft 5s 5s 16 20 mph 1015.7mb 74f 75f
7:50am 4.5ft 5s 5s 16 20 mph 1015.7mb 74f 76f
6:50am 4ft 6s 5s 16 18 mph 1015.7mb 74f 76f
5:50am 4.5ft 6s 5s 18 20 mph 1015.4mb 74f 76f
4:50am 4.5ft 6s 5s 18 22 mph 1015.4mb 74f 76f
3:50am 4ft 5s 5s 18 20 mph 1015.6mb 74f 76f
2:50am 4.5ft 5s 5s 18 20 mph 1015.4mb 74f 76f
1:50am 4.5ft 5s 5s 18 22 mph 1015.5mb 74f 76f
12:50am 4ft 5s 4s 20 27 mph 1015.8mb 74f 76f
Thu 08/25 11:50pm 4.5ft 5s 5s 20 22 mph 1015.8mb 74f 76f
10:50pm 4ft 5s 4s 20 27 mph 1016.2mb 74f 77f
9:50pm 4.5ft 5s 4s 20 25 mph 1016.3mb 74f 77f
8:50pm 4ft 5s 4s 22 27 mph 1016.6mb 74f 77f
7:50pm 4.5ft 5s 4s 22 27 mph 1016.4mb 75f 77f
6:50pm 3.5ft 5s 4s 22 25 mph 1016.2mb 75f 77f
5:50pm 3.5ft 4s 4s 20 25 mph 1016.7mb 75f 77f
4:50pm 3.5ft 10s 4s 20 25 mph 1016.7mb 75f 77f
3:50pm 3ft 9s 4s 18 22 mph 1017.1mb 75f 76f
2:50pm 3ft 10s 4s 18 22 mph 1017.8mb 75f 76f
1:50pm 3ft 10s 4s 18 22 mph 1018.6mb 75f 75f
12:50pm 2.5ft 10s 4s 16 20 mph 1019.1mb 75f 75f
11:50am 3ft 10s 5s 13 18 mph 1019.6mb 74f 74f
10:50am 2.5ft 10s 5s 13 16 mph 1020mb 74f 74f
9:50am 2.5ft 10s 5s 13 16 mph 1020.4mb 74f 74f
8:50am 3ft 11s 5s 11 13 mph 1020.6mb 74f 74f
7:50am 3ft 11s 4s 13 16 mph 1020.8mb 74f 74f
6:50am 2.5ft 11s 4s 13 16 mph 1020.9mb 74f 74f
5:50am 3ft 11s 4s 16 18 mph 1020.6mb 75f 74f
4:50am 3.5ft 11s 5s 16 18 mph 1020mb 76f 74f
3:50am 3.5ft 11s 4s 18 20 mph 1020.1mb 76f 74f
2:50am 3.5ft 5s 4s 16 20 mph 1020.5mb 76f 75f
1:50am 3.5ft 11s 4s 18 20 mph 1020.8mb 77f 75f
12:50am 3.5ft 4s 4s 18 20 mph 1021.6mb 77f 76f
Wed 08/24 10:50pm 3ft 11s 4s 18 20 mph 1021.9mb 77f 76f
9:50pm 2.5ft 11s 4s 18 20 mph 1022.2mb 76f 76f
8:50pm 2.5ft 11s 4s 18 20 mph 1022.4mb 76f 76f
7:50pm 2.5ft 11s 4s 16 18 mph 1022.4mb 77f 76f
6:50pm 2ft 11s 4s 16 18 mph 1022.1mb 77f 76f
5:50pm 1.6ft 11s 4s 13 18 mph 1022.3mb 77f 76f